sensor_id;sensor_type;location;lat;lon;timestamp;P1;durP1;ratioP1;P2;durP2;ratioP2
36653;SDS011;22650;49.350;20.898;2024-02-23T00:02:13;5.57;;;3.33;;
36653;SDS011;22650;49.350;20.898;2024-02-23T00:04:47;3.85;;;2.90;;
36653;SDS011;22650;49.350;20.898;2024-02-23T00:07:22;4.40;;;2.75;;
36653;SDS011;22650;49.350;20.898;2024-02-23T00:09:56;4.03;;;3.10;;
36653;SDS011;22650;49.350;20.898;2024-02-23T00:12:29;4.32;;;2.95;;
36653;SDS011;22650;49.350;20.898;2024-02-23T00:15:03;3.45;;;2.90;;
36653;SDS011;22650;49.350;20.898;2024-02-23T00:17:37;4.13;;;3.05;;
36653;SDS011;22650;49.350;20.898;2024-02-23T00:20:11;4.72;;;3.10;;
36653;SDS011;22650;49.350;20.898;2024-02-23T00:22:48;3.55;;;2.92;;
36653;SDS011;22650;49.350;20.898;2024-02-23T00:25:22;5.10;;;3.05;;
36653;SDS011;22650;49.350;20.898;2024-02-23T00:27:56;5.35;;;3.45;;
36653;SDS011;22650;49.350;20.898;2024-02-23T00:30:29;4.45;;;3.35;;
36653;SDS011;22650;49.350;20.898;2024-02-23T00:33:03;3.65;;;2.95;;
36653;SDS011;22650;49.350;20.898;2024-02-23T00:35:37;5.55;;;3.17;;
36653;SDS011;22650;49.350;20.898;2024-02-23T00:38:12;4.25;;;2.70;;
36653;SDS011;22650;49.350;20.898;2024-02-23T00:43:19;6.43;;;3.30;;
36653;SDS011;22650;49.350;20.898;2024-02-23T00:45:53;3.88;;;3.03;;
36653;SDS011;22650;49.350;20.898;2024-02-23T00:48:26;4.95;;;3.10;;
36653;SDS011;22650;49.350;20.898;2024-02-23T00:51:01;5.18;;;3.67;;
36653;SDS011;22650;49.350;20.898;2024-02-23T00:53:36;4.05;;;3.13;;
36653;SDS011;22650;49.350;20.898;2024-02-23T00:56:10;4.65;;;3.20;;
36653;SDS011;22650;49.350;20.898;2024-02-23T00:58:44;4.70;;;3.03;;
36653;SDS011;22650;49.350;20.898;2024-02-23T01:01:18;5.47;;;3.38;;
36653;SDS011;22650;49.350;20.898;2024-02-23T01:03:51;3.63;;;2.80;;
36653;SDS011;22650;49.350;20.898;2024-02-23T01:06:26;4.93;;;3.28;;
36653;SDS011;22650;49.350;20.898;2024-02-23T01:09:01;3.45;;;3.00;;
36653;SDS011;22650;49.350;20.898;2024-02-23T01:11:36;4.25;;;3.00;;
36653;SDS011;22650;49.350;20.898;2024-02-23T01:14:09;3.97;;;3.03;;
36653;SDS011;22650;49.350;20.898;2024-02-23T01:16:43;3.88;;;2.47;;
36653;SDS011;22650;49.350;20.898;2024-02-23T01:19:17;4.82;;;3.50;;
36653;SDS011;22650;49.350;20.898;2024-02-23T01:21:51;5.05;;;3.38;;
36653;SDS011;22650;49.350;20.898;2024-02-23T01:24:33;4.78;;;3.47;;
36653;SDS011;22650;49.350;20.898;2024-02-23T01:29:40;4.95;;;3.22;;
36653;SDS011;22650;49.350;20.898;2024-02-23T01:32:13;4.93;;;3.08;;
36653;SDS011;22650;49.350;20.898;2024-02-23T01:34:47;4.85;;;3.20;;
36653;SDS011;22650;49.350;20.898;2024-02-23T01:37:21;4.45;;;3.35;;
36653;SDS011;22650;49.350;20.898;2024-02-23T01:39:58;4.82;;;3.10;;
36653;SDS011;22650;49.350;20.898;2024-02-23T01:42:32;4.68;;;3.50;;
36653;SDS011;22650;49.350;20.898;2024-02-23T01:45:06;4.32;;;3.10;;
36653;SDS011;22650;49.350;20.898;2024-02-23T01:47:40;3.97;;;2.83;;
36653;SDS011;22650;49.350;20.898;2024-02-23T01:50:14;4.95;;;3.40;;
36653;SDS011;22650;49.350;20.898;2024-02-23T01:52:47;4.82;;;3.47;;
36653;SDS011;22650;49.350;20.898;2024-02-23T01:55:25;4.88;;;3.30;;
36653;SDS011;22650;49.350;20.898;2024-02-23T01:57:58;4.05;;;2.97;;
36653;SDS011;22650;49.350;20.898;2024-02-23T02:00:35;5.22;;;3.28;;
36653;SDS011;22650;49.350;20.898;2024-02-23T02:03:09;4.68;;;3.20;;
36653;SDS011;22650;49.350;20.898;2024-02-23T02:05:43;4.60;;;2.97;;
36653;SDS011;22650;49.350;20.898;2024-02-23T02:08:18;4.07;;;3.30;;
36653;SDS011;22650;49.350;20.898;2024-02-23T02:10:53;4.25;;;3.25;;
36653;SDS011;22650;49.350;20.898;2024-02-23T02:13:27;4.82;;;3.13;;
36653;SDS011;22650;49.350;20.898;2024-02-23T02:16:01;4.20;;;3.13;;
36653;SDS011;22650;49.350;20.898;2024-02-23T02:18:35;4.28;;;2.80;;
36653;SDS011;22650;49.350;20.898;2024-02-23T02:21:08;4.30;;;3.15;;
36653;SDS011;22650;49.350;20.898;2024-02-23T02:23:42;5.00;;;2.95;;
36653;SDS011;22650;49.350;20.898;2024-02-23T02:26:17;4.28;;;2.97;;
36653;SDS011;22650;49.350;20.898;2024-02-23T02:28:51;4.47;;;3.25;;
36653;SDS011;22650;49.350;20.898;2024-02-23T02:31:24;5.55;;;3.00;;
36653;SDS011;22650;49.350;20.898;2024-02-23T02:33:58;3.88;;;3.03;;
36653;SDS011;22650;49.350;20.898;2024-02-23T02:36:31;3.35;;;2.95;;
36653;SDS011;22650;49.350;20.898;2024-02-23T02:39:05;4.95;;;3.15;;
36653;SDS011;22650;49.350;20.898;2024-02-23T02:41:43;4.45;;;2.72;;
36653;SDS011;22650;49.350;20.898;2024-02-23T02:44:17;3.92;;;2.60;;
36653;SDS011;22650;49.350;20.898;2024-02-23T02:46:50;3.47;;;2.47;;
36653;SDS011;22650;49.350;20.898;2024-02-23T02:49:24;3.00;;;2.08;;
36653;SDS011;22650;49.350;20.898;2024-02-23T02:51:57;3.35;;;2.67;;
36653;SDS011;22650;49.350;20.898;2024-02-23T02:54:31;2.92;;;2.30;;
36653;SDS011;22650;49.350;20.898;2024-02-23T02:57:06;4.22;;;2.83;;
36653;SDS011;22650;49.350;20.898;2024-02-23T02:59:39;3.70;;;2.50;;
36653;SDS011;22650;49.350;20.898;2024-02-23T03:02:13;4.30;;;2.60;;
36653;SDS011;22650;49.350;20.898;2024-02-23T03:04:48;3.92;;;2.55;;
36653;SDS011;22650;49.350;20.898;2024-02-23T03:07:21;4.28;;;2.40;;
36653;SDS011;22650;49.350;20.898;2024-02-23T03:09:55;4.88;;;2.50;;
36653;SDS011;22650;49.350;20.898;2024-02-23T03:12:31;4.05;;;3.05;;
36653;SDS011;22650;49.350;20.898;2024-02-23T03:17:38;4.22;;;2.50;;
36653;SDS011;22650;49.350;20.898;2024-02-23T03:24:42;3.70;;;2.53;;
36653;SDS011;22650;49.350;20.898;2024-02-23T03:27:16;3.30;;;2.45;;
36653;SDS011;22650;49.350;20.898;2024-02-23T03:29:51;3.45;;;2.63;;
36653;SDS011;22650;49.350;20.898;2024-02-23T03:32:25;4.57;;;2.25;;
36653;SDS011;22650;49.350;20.898;2024-02-23T03:34:59;4.57;;;2.88;;
36653;SDS011;22650;49.350;20.898;2024-02-23T03:37:33;3.08;;;2.28;;
36653;SDS011;22650;49.350;20.898;2024-02-23T03:40:07;4.03;;;2.60;;
36653;SDS011;22650;49.350;20.898;2024-02-23T03:42:42;4.13;;;2.22;;
36653;SDS011;22650;49.350;20.898;2024-02-23T03:45:17;3.90;;;2.30;;
36653;SDS011;22650;49.350;20.898;2024-02-23T03:47:50;5.07;;;3.25;;
36653;SDS011;22650;49.350;20.898;2024-02-23T03:50:24;4.15;;;2.50;;
36653;SDS011;22650;49.350;20.898;2024-02-23T03:52:57;3.50;;;2.20;;
36653;SDS011;22650;49.350;20.898;2024-02-23T03:55:31;3.13;;;1.90;;
36653;SDS011;22650;49.350;20.898;2024-02-23T03:58:05;4.60;;;2.22;;
36653;SDS011;22650;49.350;20.898;2024-02-23T04:00:40;3.10;;;2.30;;
36653;SDS011;22650;49.350;20.898;2024-02-23T04:03:13;4.80;;;2.63;;
36653;SDS011;22650;49.350;20.898;2024-02-23T04:05:47;2.85;;;2.45;;
36653;SDS011;22650;49.350;20.898;2024-02-23T04:08:21;3.92;;;2.38;;
36653;SDS011;22650;49.350;20.898;2024-02-23T04:10:54;4.07;;;2.47;;
36653;SDS011;22650;49.350;20.898;2024-02-23T04:13:28;3.33;;;2.13;;
36653;SDS011;22650;49.350;20.898;2024-02-23T04:16:03;3.42;;;2.22;;
36653;SDS011;22650;49.350;20.898;2024-02-23T04:18:37;3.22;;;2.20;;
36653;SDS011;22650;49.350;20.898;2024-02-23T04:21:11;3.63;;;2.55;;
36653;SDS011;22650;49.350;20.898;2024-02-23T04:23:44;3.30;;;2.65;;
36653;SDS011;22650;49.350;20.898;2024-02-23T04:26:18;5.40;;;2.53;;
36653;SDS011;22650;49.350;20.898;2024-02-23T04:28:52;5.80;;;2.70;;
36653;SDS011;22650;49.350;20.898;2024-02-23T04:31:27;5.38;;;2.95;;
36653;SDS011;22650;49.350;20.898;2024-02-23T04:34:00;3.58;;;2.50;;
36653;SDS011;22650;49.350;20.898;2024-02-23T04:36:34;3.10;;;2.60;;
36653;SDS011;22650;49.350;20.898;2024-02-23T04:39:07;4.90;;;2.67;;
36653;SDS011;22650;49.350;20.898;2024-02-23T04:41:41;4.80;;;2.95;;
36653;SDS011;22650;49.350;20.898;2024-02-23T04:44:15;3.60;;;2.08;;
36653;SDS011;22650;49.350;20.898;2024-02-23T04:46:50;5.57;;;2.70;;
36653;SDS011;22650;49.350;20.898;2024-02-23T04:49:23;5.03;;;2.70;;
36653;SDS011;22650;49.350;20.898;2024-02-23T04:51:57;3.70;;;2.42;;
36653;SDS011;22650;49.350;20.898;2024-02-23T04:54:30;4.22;;;2.60;;
36653;SDS011;22650;49.350;20.898;2024-02-23T04:57:04;3.17;;;2.40;;
36653;SDS011;22650;49.350;20.898;2024-02-23T04:59:38;2.80;;;1.90;;
36653;SDS011;22650;49.350;20.898;2024-02-23T05:02:13;3.28;;;2.10;;
36653;SDS011;22650;49.350;20.898;2024-02-23T05:04:47;3.38;;;2.47;;
36653;SDS011;22650;49.350;20.898;2024-02-23T05:07:21;4.13;;;2.30;;
36653;SDS011;22650;49.350;20.898;2024-02-23T05:09:55;4.50;;;2.20;;
36653;SDS011;22650;49.350;20.898;2024-02-23T05:12:28;2.70;;;2.00;;
36653;SDS011;22650;49.350;20.898;2024-02-23T05:15:02;3.67;;;2.42;;
36653;SDS011;22650;49.350;20.898;2024-02-23T05:17:37;3.22;;;2.03;;
36653;SDS011;22650;49.350;20.898;2024-02-23T05:20:11;2.85;;;2.10;;
36653;SDS011;22650;49.350;20.898;2024-02-23T05:22:46;2.33;;;2.03;;
36653;SDS011;22650;49.350;20.898;2024-02-23T05:25:20;2.50;;;2.20;;
36653;SDS011;22650;49.350;20.898;2024-02-23T05:27:53;2.60;;;1.98;;
36653;SDS011;22650;49.350;20.898;2024-02-23T05:30:27;2.90;;;1.88;;
36653;SDS011;22650;49.350;20.898;2024-02-23T05:33:04;2.88;;;1.90;;
36653;SDS011;22650;49.350;20.898;2024-02-23T05:35:38;2.33;;;1.70;;
36653;SDS011;22650;49.350;20.898;2024-02-23T05:38:11;2.90;;;1.58;;
36653;SDS011;22650;49.350;20.898;2024-02-23T05:40:45;8.98;;;3.10;;
36653;SDS011;22650;49.350;20.898;2024-02-23T05:43:20;4.63;;;2.50;;
36653;SDS011;22650;49.350;20.898;2024-02-23T05:45:54;3.13;;;2.00;;
36653;SDS011;22650;49.350;20.898;2024-02-23T05:48:31;3.08;;;1.90;;
36653;SDS011;22650;49.350;20.898;2024-02-23T05:51:05;2.88;;;2.00;;
36653;SDS011;22650;49.350;20.898;2024-02-23T05:53:40;3.10;;;1.88;;
36653;SDS011;22650;49.350;20.898;2024-02-23T05:56:14;3.30;;;1.92;;
36653;SDS011;22650;49.350;20.898;2024-02-23T05:58:47;3.00;;;2.03;;
36653;SDS011;22650;49.350;20.898;2024-02-23T06:01:21;2.38;;;1.70;;
36653;SDS011;22650;49.350;20.898;2024-02-23T06:03:56;2.83;;;1.55;;
36653;SDS011;22650;49.350;20.898;2024-02-23T06:09:04;2.60;;;1.75;;
36653;SDS011;22650;49.350;20.898;2024-02-23T06:11:38;2.53;;;1.77;;
36653;SDS011;22650;49.350;20.898;2024-02-23T06:14:11;2.70;;;1.42;;
36653;SDS011;22650;49.350;20.898;2024-02-23T06:16:45;2.47;;;1.50;;
36653;SDS011;22650;49.350;20.898;2024-02-23T06:19:20;2.20;;;1.73;;
36653;SDS011;22650;49.350;20.898;2024-02-23T06:21:54;2.30;;;1.30;;
36653;SDS011;22650;49.350;20.898;2024-02-23T06:24:27;2.50;;;1.58;;
36653;SDS011;22650;49.350;20.898;2024-02-23T06:27:01;1.92;;;1.60;;
36653;SDS011;22650;49.350;20.898;2024-02-23T06:29:35;1.95;;;1.38;;
36653;SDS011;22650;49.350;20.898;2024-02-23T06:32:09;2.28;;;1.30;;
36653;SDS011;22650;49.350;20.898;2024-02-23T06:34:44;2.38;;;1.50;;
36653;SDS011;22650;49.350;20.898;2024-02-23T06:37:18;4.45;;;1.98;;
36653;SDS011;22650;49.350;20.898;2024-02-23T06:39:51;3.17;;;2.00;;
36653;SDS011;22650;49.350;20.898;2024-02-23T06:42:26;2.35;;;1.52;;
36653;SDS011;22650;49.350;20.898;2024-02-23T06:45:00;3.05;;;1.80;;
36653;SDS011;22650;49.350;20.898;2024-02-23T06:47:34;4.25;;;1.90;;
36653;SDS011;22650;49.350;20.898;2024-02-23T06:50:09;2.40;;;1.67;;
36653;SDS011;22650;49.350;20.898;2024-02-23T06:52:43;1.88;;;1.30;;
36653;SDS011;22650;49.350;20.898;2024-02-23T06:55:16;2.78;;;1.60;;
36653;SDS011;22650;49.350;20.898;2024-02-23T06:57:52;2.38;;;1.50;;
36653;SDS011;22650;49.350;20.898;2024-02-23T07:00:25;2.05;;;1.33;;
36653;SDS011;22650;49.350;20.898;2024-02-23T07:03:00;2.50;;;1.70;;
36653;SDS011;22650;49.350;20.898;2024-02-23T07:05:37;2.38;;;1.30;;
36653;SDS011;22650;49.350;20.898;2024-02-23T07:08:11;1.55;;;1.33;;
36653;SDS011;22650;49.350;20.898;2024-02-23T07:10:44;2.10;;;1.50;;
36653;SDS011;22650;49.350;20.898;2024-02-23T07:13:18;1.90;;;1.30;;
36653;SDS011;22650;49.350;20.898;2024-02-23T07:16:01;2.17;;;1.48;;
36653;SDS011;22650;49.350;20.898;2024-02-23T07:18:35;2.17;;;1.23;;
36653;SDS011;22650;49.350;20.898;2024-02-23T07:21:10;2.63;;;1.30;;
36653;SDS011;22650;49.350;20.898;2024-02-23T07:23:44;2.35;;;1.15;;
36653;SDS011;22650;49.350;20.898;2024-02-23T07:26:18;2.83;;;1.35;;
36653;SDS011;22650;49.350;20.898;2024-02-23T07:28:54;2.33;;;1.20;;
36653;SDS011;22650;49.350;20.898;2024-02-23T07:31:27;1.98;;;1.20;;
36653;SDS011;22650;49.350;20.898;2024-02-23T07:34:01;1.70;;;1.13;;
36653;SDS011;22650;49.350;20.898;2024-02-23T07:36:36;2.40;;;1.27;;
36653;SDS011;22650;49.350;20.898;2024-02-23T07:39:10;2.25;;;1.20;;
36653;SDS011;22650;49.350;20.898;2024-02-23T07:41:44;2.08;;;1.15;;
36653;SDS011;22650;49.350;20.898;2024-02-23T07:44:18;2.08;;;1.15;;
36653;SDS011;22650;49.350;20.898;2024-02-23T07:46:51;1.70;;;1.20;;
36653;SDS011;22650;49.350;20.898;2024-02-23T07:52:02;1.75;;;1.10;;
36653;SDS011;22650;49.350;20.898;2024-02-23T07:54:36;2.35;;;0.90;;
36653;SDS011;22650;49.350;20.898;2024-02-23T07:57:09;1.75;;;1.13;;
36653;SDS011;22650;49.350;20.898;2024-02-23T07:59:45;2.35;;;1.20;;
36653;SDS011;22650;49.350;20.898;2024-02-23T08:02:18;1.95;;;1.30;;
36653;SDS011;22650;49.350;20.898;2024-02-23T08:04:52;2.20;;;1.10;;
36653;SDS011;22650;49.350;20.898;2024-02-23T08:07:27;1.90;;;1.17;;
36653;SDS011;22650;49.350;20.898;2024-02-23T08:10:02;1.55;;;1.10;;
36653;SDS011;22650;49.350;20.898;2024-02-23T08:12:39;1.85;;;1.25;;
36653;SDS011;22650;49.350;20.898;2024-02-23T08:17:48;1.35;;;0.75;;
36653;SDS011;22650;49.350;20.898;2024-02-23T08:20:21;2.15;;;1.30;;
36653;SDS011;22650;49.350;20.898;2024-02-23T08:22:56;2.00;;;1.30;;
36653;SDS011;22650;49.350;20.898;2024-02-23T08:25:30;2.05;;;1.23;;
36653;SDS011;22650;49.350;20.898;2024-02-23T08:28:04;1.63;;;0.90;;
36653;SDS011;22650;49.350;20.898;2024-02-23T08:30:38;2.05;;;1.10;;
36653;SDS011;22650;49.350;20.898;2024-02-23T08:33:11;1.85;;;1.33;;
36653;SDS011;22650;49.350;20.898;2024-02-23T08:35:45;1.75;;;1.40;;
36653;SDS011;22650;49.350;20.898;2024-02-23T08:38:21;2.10;;;1.20;;
36653;SDS011;22650;49.350;20.898;2024-02-23T08:40:55;3.15;;;1.30;;
36653;SDS011;22650;49.350;20.898;2024-02-23T08:43:28;1.60;;;1.00;;
36653;SDS011;22650;49.350;20.898;2024-02-23T08:46:02;1.17;;;0.80;;
36653;SDS011;22650;49.350;20.898;2024-02-23T08:48:40;1.63;;;1.00;;
36653;SDS011;22650;49.350;20.898;2024-02-23T08:51:14;1.30;;;1.20;;
36653;SDS011;22650;49.350;20.898;2024-02-23T08:53:49;1.52;;;0.88;;
36653;SDS011;22650;49.350;20.898;2024-02-23T08:58:56;1.65;;;1.00;;
36653;SDS011;22650;49.350;20.898;2024-02-23T09:01:30;1.48;;;0.88;;
36653;SDS011;22650;49.350;20.898;2024-02-23T09:04:03;1.55;;;1.00;;
36653;SDS011;22650;49.350;20.898;2024-02-23T09:06:37;1.20;;;0.70;;
36653;SDS011;22650;49.350;20.898;2024-02-23T09:09:13;1.52;;;1.10;;
36653;SDS011;22650;49.350;20.898;2024-02-23T09:14:20;1.13;;;0.82;;
36653;SDS011;22650;49.350;20.898;2024-02-23T09:16:54;1.42;;;0.80;;
36653;SDS011;22650;49.350;20.898;2024-02-23T09:19:28;1.13;;;0.80;;
36653;SDS011;22650;49.350;20.898;2024-02-23T09:22:01;2.15;;;0.85;;
36653;SDS011;22650;49.350;20.898;2024-02-23T09:24:38;1.25;;;0.80;;
36653;SDS011;22650;49.350;20.898;2024-02-23T09:27:12;0.98;;;0.70;;
36653;SDS011;22650;49.350;20.898;2024-02-23T09:29:46;0.90;;;0.75;;
36653;SDS011;22650;49.350;20.898;2024-02-23T09:32:20;2.03;;;1.00;;
36653;SDS011;22650;49.350;20.898;2024-02-23T09:34:54;2.05;;;1.00;;
36653;SDS011;22650;49.350;20.898;2024-02-23T09:37:28;1.55;;;0.98;;
36653;SDS011;22650;49.350;20.898;2024-02-23T09:40:04;1.92;;;1.02;;
36653;SDS011;22650;49.350;20.898;2024-02-23T09:42:39;1.75;;;1.02;;
36653;SDS011;22650;49.350;20.898;2024-02-23T09:45:12;1.77;;;1.10;;
36653;SDS011;22650;49.350;20.898;2024-02-23T09:47:46;2.80;;;1.30;;
36653;SDS011;22650;49.350;20.898;2024-02-23T09:50:21;1.90;;;1.10;;
36653;SDS011;22650;49.350;20.898;2024-02-23T09:52:56;1.40;;;1.10;;
36653;SDS011;22650;49.350;20.898;2024-02-23T09:55:33;1.90;;;1.27;;
36653;SDS011;22650;49.350;20.898;2024-02-23T09:58:07;1.58;;;1.10;;
36653;SDS011;22650;49.350;20.898;2024-02-23T10:00:42;2.17;;;0.93;;
36653;SDS011;22650;49.350;20.898;2024-02-23T10:03:16;1.48;;;0.88;;
36653;SDS011;22650;49.350;20.898;2024-02-23T10:05:50;1.65;;;1.13;;
36653;SDS011;22650;49.350;20.898;2024-02-23T10:08:24;1.90;;;1.13;;
36653;SDS011;22650;49.350;20.898;2024-02-23T10:11:00;2.03;;;1.20;;
36653;SDS011;22650;49.350;20.898;2024-02-23T10:13:34;1.90;;;1.35;;
36653;SDS011;22650;49.350;20.898;2024-02-23T10:16:07;2.97;;;1.75;;
36653;SDS011;22650;49.350;20.898;2024-02-23T10:18:46;2.08;;;1.33;;
36653;SDS011;22650;49.350;20.898;2024-02-23T10:21:21;2.20;;;1.42;;
36653;SDS011;22650;49.350;20.898;2024-02-23T10:23:55;1.60;;;1.10;;
36653;SDS011;22650;49.350;20.898;2024-02-23T10:26:30;2.00;;;1.40;;
36653;SDS011;22650;49.350;20.898;2024-02-23T10:29:04;1.95;;;1.00;;
36653;SDS011;22650;49.350;20.898;2024-02-23T10:31:38;2.10;;;1.27;;
36653;SDS011;22650;49.350;20.898;2024-02-23T10:34:11;2.10;;;1.40;;
36653;SDS011;22650;49.350;20.898;2024-02-23T10:36:46;1.48;;;0.95;;
36653;SDS011;22650;49.350;20.898;2024-02-23T10:39:22;1.60;;;0.88;;
36653;SDS011;22650;49.350;20.898;2024-02-23T10:42:00;1.98;;;1.10;;
36653;SDS011;22650;49.350;20.898;2024-02-23T10:44:36;2.17;;;1.40;;
36653;SDS011;22650;49.350;20.898;2024-02-23T10:47:11;2.28;;;1.38;;
36653;SDS011;22650;49.350;20.898;2024-02-23T10:49:45;2.45;;;1.63;;
36653;SDS011;22650;49.350;20.898;2024-02-23T10:52:19;2.15;;;1.35;;
36653;SDS011;22650;49.350;20.898;2024-02-23T10:54:58;1.33;;;0.85;;
36653;SDS011;22650;49.350;20.898;2024-02-23T10:57:37;2.03;;;1.00;;
36653;SDS011;22650;49.350;20.898;2024-02-23T11:00:12;1.73;;;0.90;;
36653;SDS011;22650;49.350;20.898;2024-02-23T11:02:48;1.60;;;0.82;;
36653;SDS011;22650;49.350;20.898;2024-02-23T11:05:24;1.27;;;0.85;;
36653;SDS011;22650;49.350;20.898;2024-02-23T11:07:58;1.50;;;1.00;;
36653;SDS011;22650;49.350;20.898;2024-02-23T11:10:40;1.30;;;0.80;;
36653;SDS011;22650;49.350;20.898;2024-02-23T11:13:16;0.95;;;0.68;;
36653;SDS011;22650;49.350;20.898;2024-02-23T11:15:50;0.95;;;0.77;;
36653;SDS011;22650;49.350;20.898;2024-02-23T11:18:33;2.05;;;0.70;;
36653;SDS011;22650;49.350;20.898;2024-02-23T11:21:09;1.73;;;0.80;;
36653;SDS011;22650;49.350;20.898;2024-02-23T11:23:44;0.80;;;0.68;;
36653;SDS011;22650;49.350;20.898;2024-02-23T11:26:22;0.90;;;0.60;;
36653;SDS011;22650;49.350;20.898;2024-02-23T11:28:59;1.45;;;0.55;;
36653;SDS011;22650;49.350;20.898;2024-02-23T11:31:46;1.38;;;0.70;;
36653;SDS011;22650;49.350;20.898;2024-02-23T11:34:21;1.25;;;0.70;;
36653;SDS011;22650;49.350;20.898;2024-02-23T11:36:56;0.77;;;0.43;;
36653;SDS011;22650;49.350;20.898;2024-02-23T11:39:31;1.25;;;0.50;;
36653;SDS011;22650;49.350;20.898;2024-02-23T11:42:05;0.93;;;0.60;;
36653;SDS011;22650;49.350;20.898;2024-02-23T11:44:41;1.05;;;0.50;;
36653;SDS011;22650;49.350;20.898;2024-02-23T11:47:15;1.25;;;0.60;;
36653;SDS011;22650;49.350;20.898;2024-02-23T11:49:48;1.70;;;0.60;;
36653;SDS011;22650;49.350;20.898;2024-02-23T11:52:22;1.27;;;0.55;;
36653;SDS011;22650;49.350;20.898;2024-02-23T11:54:55;1.05;;;0.65;;
36653;SDS011;22650;49.350;20.898;2024-02-23T11:57:30;1.00;;;0.50;;
36653;SDS011;22650;49.350;20.898;2024-02-23T12:00:18;2.22;;;1.00;;
36653;SDS011;22650;49.350;20.898;2024-02-23T12:02:52;1.20;;;0.47;;
36653;SDS011;22650;49.350;20.898;2024-02-23T12:05:26;1.33;;;0.75;;
36653;SDS011;22650;49.350;20.898;2024-02-23T12:08:00;2.28;;;0.55;;
36653;SDS011;22650;49.350;20.898;2024-02-23T12:10:34;1.58;;;1.15;;
36653;SDS011;22650;49.350;20.898;2024-02-23T12:13:09;1.42;;;0.90;;
36653;SDS011;22650;49.350;20.898;2024-02-23T12:15:44;1.10;;;0.50;;
36653;SDS011;22650;49.350;20.898;2024-02-23T12:20:58;0.80;;;0.57;;
36653;SDS011;22650;49.350;20.898;2024-02-23T12:23:42;1.23;;;0.90;;
36653;SDS011;22650;49.350;20.898;2024-02-23T12:26:17;1.70;;;0.90;;
36653;SDS011;22650;49.350;20.898;2024-02-23T12:28:51;1.08;;;0.70;;
36653;SDS011;22650;49.350;20.898;2024-02-23T12:31:26;1.00;;;0.50;;
36653;SDS011;22650;49.350;20.898;2024-02-23T12:34:00;2.65;;;1.00;;
36653;SDS011;22650;49.350;20.898;2024-02-23T12:36:34;1.50;;;1.05;;
36653;SDS011;22650;49.350;20.898;2024-02-23T12:41:42;0.93;;;0.70;;
36653;SDS011;22650;49.350;20.898;2024-02-23T12:44:16;0.90;;;0.70;;
36653;SDS011;22650;49.350;20.898;2024-02-23T12:46:51;1.00;;;0.70;;
36653;SDS011;22650;49.350;20.898;2024-02-23T12:49:25;1.33;;;0.80;;
36653;SDS011;22650;49.350;20.898;2024-02-23T12:51:59;1.70;;;0.80;;
36653;SDS011;22650;49.350;20.898;2024-02-23T12:54:32;1.85;;;0.70;;
36653;SDS011;22650;49.350;20.898;2024-02-23T12:57:06;1.45;;;0.95;;
36653;SDS011;22650;49.350;20.898;2024-02-23T12:59:40;1.75;;;0.95;;
36653;SDS011;22650;49.350;20.898;2024-02-23T13:02:15;1.42;;;0.80;;
36653;SDS011;22650;49.350;20.898;2024-02-23T13:04:49;1.27;;;0.82;;
36653;SDS011;22650;49.350;20.898;2024-02-23T13:07:22;1.25;;;0.85;;
36653;SDS011;22650;49.350;20.898;2024-02-23T13:09:58;1.33;;;0.80;;
36653;SDS011;22650;49.350;20.898;2024-02-23T13:12:32;1.33;;;0.90;;
36653;SDS011;22650;49.350;20.898;2024-02-23T13:15:06;1.88;;;1.30;;
36653;SDS011;22650;49.350;20.898;2024-02-23T13:17:42;1.25;;;1.08;;
36653;SDS011;22650;49.350;20.898;2024-02-23T13:20:16;2.10;;;0.90;;
36653;SDS011;22650;49.350;20.898;2024-02-23T13:22:49;1.40;;;0.95;;
36653;SDS011;22650;49.350;20.898;2024-02-23T13:25:23;3.30;;;1.10;;
36653;SDS011;22650;49.350;20.898;2024-02-23T13:27:57;2.08;;;1.30;;
36653;SDS011;22650;49.350;20.898;2024-02-23T13:30:31;1.35;;;0.85;;
36653;SDS011;22650;49.350;20.898;2024-02-23T13:33:06;1.80;;;1.00;;
36653;SDS011;22650;49.350;20.898;2024-02-23T13:35:43;1.80;;;0.90;;
36653;SDS011;22650;49.350;20.898;2024-02-23T13:38:17;1.42;;;0.80;;
36653;SDS011;22650;49.350;20.898;2024-02-23T13:40:50;1.08;;;0.90;;
36653;SDS011;22650;49.350;20.898;2024-02-23T13:43:24;1.23;;;0.73;;
36653;SDS011;22650;49.350;20.898;2024-02-23T13:45:57;1.80;;;0.88;;
36653;SDS011;22650;49.350;20.898;2024-02-23T13:48:32;1.05;;;0.60;;
36653;SDS011;22650;49.350;20.898;2024-02-23T13:51:06;1.92;;;0.63;;
36653;SDS011;22650;49.350;20.898;2024-02-23T13:53:40;1.35;;;0.73;;
36653;SDS011;22650;49.350;20.898;2024-02-23T13:56:14;1.65;;;0.57;;
36653;SDS011;22650;49.350;20.898;2024-02-23T13:58:48;2.95;;;1.15;;
36653;SDS011;22650;49.350;20.898;2024-02-23T14:01:21;2.63;;;1.20;;
36653;SDS011;22650;49.350;20.898;2024-02-23T14:03:58;2.70;;;1.50;;
36653;SDS011;22650;49.350;20.898;2024-02-23T14:09:05;1.10;;;0.80;;
36653;SDS011;22650;49.350;20.898;2024-02-23T14:11:38;2.20;;;1.00;;
36653;SDS011;22650;49.350;20.898;2024-02-23T14:14:13;1.58;;;0.88;;
36653;SDS011;22650;49.350;20.898;2024-02-23T14:16:46;1.10;;;0.70;;
36653;SDS011;22650;49.350;20.898;2024-02-23T14:19:21;1.55;;;0.98;;
36653;SDS011;22650;49.350;20.898;2024-02-23T14:21:56;1.30;;;0.80;;
36653;SDS011;22650;49.350;20.898;2024-02-23T14:24:30;1.15;;;0.90;;
36653;SDS011;22650;49.350;20.898;2024-02-23T14:27:04;1.73;;;0.85;;
36653;SDS011;22650;49.350;20.898;2024-02-23T14:29:37;1.15;;;0.85;;
36653;SDS011;22650;49.350;20.898;2024-02-23T14:32:11;1.20;;;0.80;;
36653;SDS011;22650;49.350;20.898;2024-02-23T14:34:50;1.30;;;0.80;;
36653;SDS011;22650;49.350;20.898;2024-02-23T14:37:24;1.25;;;0.82;;
36653;SDS011;22650;49.350;20.898;2024-02-23T14:39:58;1.30;;;0.70;;
36653;SDS011;22650;49.350;20.898;2024-02-23T14:42:32;1.20;;;0.77;;
36653;SDS011;22650;49.350;20.898;2024-02-23T14:45:06;1.50;;;0.82;;
36653;SDS011;22650;49.350;20.898;2024-02-23T14:47:41;1.52;;;1.10;;
36653;SDS011;22650;49.350;20.898;2024-02-23T14:50:18;2.30;;;1.20;;
36653;SDS011;22650;49.350;20.898;2024-02-23T14:52:52;2.53;;;1.10;;
36653;SDS011;22650;49.350;20.898;2024-02-23T14:55:26;1.67;;;1.00;;
36653;SDS011;22650;49.350;20.898;2024-02-23T14:58:01;1.25;;;0.70;;
36653;SDS011;22650;49.350;20.898;2024-02-23T15:00:34;1.42;;;0.80;;
36653;SDS011;22650;49.350;20.898;2024-02-23T15:03:08;1.55;;;0.90;;
36653;SDS011;22650;49.350;20.898;2024-02-23T15:05:43;1.23;;;0.68;;
36653;SDS011;22650;49.350;20.898;2024-02-23T15:08:17;1.58;;;1.00;;
36653;SDS011;22650;49.350;20.898;2024-02-23T15:10:51;1.80;;;0.88;;
36653;SDS011;22650;49.350;20.898;2024-02-23T15:13:24;1.63;;;0.80;;
36653;SDS011;22650;49.350;20.898;2024-02-23T15:15:58;1.30;;;0.80;;
36653;SDS011;22650;49.350;20.898;2024-02-23T15:18:32;1.00;;;0.80;;
36653;SDS011;22650;49.350;20.898;2024-02-23T15:21:08;1.92;;;1.00;;
36653;SDS011;22650;49.350;20.898;2024-02-23T15:23:43;1.65;;;0.85;;
36653;SDS011;22650;49.350;20.898;2024-02-23T15:26:17;1.17;;;0.50;;
36653;SDS011;22650;49.350;20.898;2024-02-23T15:28:51;0.90;;;0.52;;
36653;SDS011;22650;49.350;20.898;2024-02-23T15:31:25;3.50;;;2.40;;
36653;SDS011;22650;49.350;20.898;2024-02-23T15:33:58;1.88;;;1.00;;
36653;SDS011;22650;49.350;20.898;2024-02-23T15:36:35;1.38;;;0.80;;
36653;SDS011;22650;49.350;20.898;2024-02-23T15:39:09;1.40;;;0.60;;
36653;SDS011;22650;49.350;20.898;2024-02-23T15:41:43;1.83;;;0.70;;
36653;SDS011;22650;49.350;20.898;2024-02-23T15:44:17;1.23;;;0.82;;
36653;SDS011;22650;49.350;20.898;2024-02-23T15:46:51;1.15;;;0.40;;
36653;SDS011;22650;49.350;20.898;2024-02-23T15:49:24;1.38;;;0.68;;